Terminal Aerodrome Forecast
Issued by NWS

Home | Current Version | Previous Version | Text Only | Print | Product List | Glossary On
Versions: 1 2 3 4 5 6 7 8 9 10 11 12 13 14 15 16 17 18 19 20 21 22 23 24 25 26
233
FTUS43 KGLD 241720
TAFMCK
TAF
KMCK 241720Z 2418/2518 18007KT P6SM SCT280
     FM242300 VRB05KT P6SM FEW050
     FM250600 20005KT P6SM SCT100 SCT250
     FM250900 24005KT P6SM SKC
     FM251400 28005KT P6SM SKC=

USA.gov is the U.S. government's official web portal to all federal, state and local government web resources and services.